sensor_id;sensor_type;location;lat;lon;timestamp;P1;durP1;ratioP1;P2;durP2;ratioP2
74626;SDS011;63132;52.268;5.192;2023-07-31T00:00:13;14.98;;;3.95;;
74626;SDS011;63132;52.268;5.192;2023-07-31T00:02:39;8.15;;;2.78;;
74626;SDS011;63132;52.268;5.192;2023-07-31T00:05:04;6.75;;;3.28;;
74626;SDS011;63132;52.268;5.192;2023-07-31T00:07:31;16.92;;;3.17;;
74626;SDS011;63132;52.268;5.192;2023-07-31T00:09:57;14.43;;;2.85;;
74626;SDS011;63132;52.268;5.192;2023-07-31T00:12:23;10.07;;;2.83;;
74626;SDS011;63132;52.268;5.192;2023-07-31T00:14:48;15.90;;;3.58;;
74626;SDS011;63132;52.268;5.192;2023-07-31T00:17:14;19.20;;;3.60;;
74626;SDS011;63132;52.268;5.192;2023-07-31T00:19:42;13.10;;;3.55;;
74626;SDS011;63132;52.268;5.192;2023-07-31T00:22:08;17.92;;;3.90;;
74626;SDS011;63132;52.268;5.192;2023-07-31T00:24:33;12.70;;;3.63;;
74626;SDS011;63132;52.268;5.192;2023-07-31T00:26:58;17.00;;;4.35;;
74626;SDS011;63132;52.268;5.192;2023-07-31T00:29:24;16.30;;;4.88;;
74626;SDS011;63132;52.268;5.192;2023-07-31T00:31:49;14.82;;;3.80;;
74626;SDS011;63132;52.268;5.192;2023-07-31T00:34:14;11.85;;;3.83;;
74626;SDS011;63132;52.268;5.192;2023-07-31T00:36:41;13.50;;;3.75;;
74626;SDS011;63132;52.268;5.192;2023-07-31T00:39:06;11.90;;;4.20;;
74626;SDS011;63132;52.268;5.192;2023-07-31T00:41:31;10.60;;;3.72;;
74626;SDS011;63132;52.268;5.192;2023-07-31T00:43:57;14.95;;;4.45;;
74626;SDS011;63132;52.268;5.192;2023-07-31T00:46:22;14.02;;;4.30;;
74626;SDS011;63132;52.268;5.192;2023-07-31T00:48:48;20.13;;;7.00;;
74626;SDS011;63132;52.268;5.192;2023-07-31T00:51:14;21.52;;;5.72;;
74626;SDS011;63132;52.268;5.192;2023-07-31T00:53:40;24.50;;;6.53;;
74626;SDS011;63132;52.268;5.192;2023-07-31T00:56:06;27.70;;;8.02;;
74626;SDS011;63132;52.268;5.192;2023-07-31T00:58:31;29.48;;;8.15;;
74626;SDS011;63132;52.268;5.192;2023-07-31T01:00:57;26.08;;;7.68;;
74626;SDS011;63132;52.268;5.192;2023-07-31T01:03:22;26.65;;;7.07;;
74626;SDS011;63132;52.268;5.192;2023-07-31T01:11:15;23.80;;;5.90;;
74626;SDS011;63132;52.268;5.192;2023-07-31T01:16:11;18.83;;;5.20;;
74626;SDS011;63132;52.268;5.192;2023-07-31T01:18:37;15.85;;;5.47;;
74626;SDS011;63132;52.268;5.192;2023-07-31T01:21:03;18.23;;;5.10;;
74626;SDS011;63132;52.268;5.192;2023-07-31T01:23:51;12.35;;;4.28;;
74626;SDS011;63132;52.268;5.192;2023-07-31T01:26:28;20.98;;;5.35;;
74626;SDS011;63132;52.268;5.192;2023-07-31T01:29:03;13.75;;;4.80;;
74626;SDS011;63132;52.268;5.192;2023-07-31T01:31:39;17.42;;;4.82;;
74626;SDS011;63132;52.268;5.192;2023-07-31T01:34:06;16.35;;;4.80;;
74626;SDS011;63132;52.268;5.192;2023-07-31T01:36:35;14.00;;;4.85;;
74626;SDS011;63132;52.268;5.192;2023-07-31T01:39:01;20.83;;;5.78;;
74626;SDS011;63132;52.268;5.192;2023-07-31T01:41:27;19.95;;;5.78;;
74626;SDS011;63132;52.268;5.192;2023-07-31T01:43:53;20.10;;;5.32;;
74626;SDS011;63132;52.268;5.192;2023-07-31T01:46:18;25.58;;;5.80;;
74626;SDS011;63132;52.268;5.192;2023-07-31T01:48:43;18.48;;;6.00;;
74626;SDS011;63132;52.268;5.192;2023-07-31T01:51:09;18.75;;;6.30;;
74626;SDS011;63132;52.268;5.192;2023-07-31T01:53:34;20.80;;;6.53;;
74626;SDS011;63132;52.268;5.192;2023-07-31T01:56:00;31.23;;;6.35;;
74626;SDS011;63132;52.268;5.192;2023-07-31T01:58:25;22.85;;;5.80;;
74626;SDS011;63132;52.268;5.192;2023-07-31T02:00:50;24.08;;;6.30;;
74626;SDS011;63132;52.268;5.192;2023-07-31T02:03:16;28.70;;;7.03;;
74626;SDS011;63132;52.268;5.192;2023-07-31T02:05:44;31.58;;;7.40;;
74626;SDS011;63132;52.268;5.192;2023-07-31T02:08:11;30.08;;;7.97;;
74626;SDS011;63132;52.268;5.192;2023-07-31T02:10:36;36.15;;;8.85;;
74626;SDS011;63132;52.268;5.192;2023-07-31T02:13:01;32.53;;;9.07;;
74626;SDS011;63132;52.268;5.192;2023-07-31T02:15:28;35.22;;;10.82;;
74626;SDS011;63132;52.268;5.192;2023-07-31T02:17:54;40.65;;;10.25;;
74626;SDS011;63132;52.268;5.192;2023-07-31T02:20:20;48.20;;;9.27;;
74626;SDS011;63132;52.268;5.192;2023-07-31T02:22:45;36.92;;;9.88;;
74626;SDS011;63132;52.268;5.192;2023-07-31T02:25:11;41.30;;;9.13;;
74626;SDS011;63132;52.268;5.192;2023-07-31T02:27:36;37.25;;;10.55;;
74626;SDS011;63132;52.268;5.192;2023-07-31T02:30:01;53.55;;;11.02;;
74626;SDS011;63132;52.268;5.192;2023-07-31T02:32:27;39.03;;;9.52;;
74626;SDS011;63132;52.268;5.192;2023-07-31T02:34:52;40.67;;;9.90;;
74626;SDS011;63132;52.268;5.192;2023-07-31T02:37:18;36.10;;;10.15;;
74626;SDS011;63132;52.268;5.192;2023-07-31T02:39:43;44.88;;;10.60;;
74626;SDS011;63132;52.268;5.192;2023-07-31T02:42:09;50.72;;;10.68;;
74626;SDS011;63132;52.268;5.192;2023-07-31T02:44:34;41.20;;;10.15;;
74626;SDS011;63132;52.268;5.192;2023-07-31T02:46:59;46.53;;;10.55;;
74626;SDS011;63132;52.268;5.192;2023-07-31T02:49:29;44.50;;;10.50;;
74626;SDS011;63132;52.268;5.192;2023-07-31T02:51:57;46.50;;;11.13;;
74626;SDS011;63132;52.268;5.192;2023-07-31T02:54:22;42.78;;;9.98;;
74626;SDS011;63132;52.268;5.192;2023-07-31T02:56:48;47.08;;;9.90;;
74626;SDS011;63132;52.268;5.192;2023-07-31T02:59:14;43.78;;;11.27;;
74626;SDS011;63132;52.268;5.192;2023-07-31T03:01:39;40.95;;;10.27;;
74626;SDS011;63132;52.268;5.192;2023-07-31T03:04:05;51.17;;;10.55;;
74626;SDS011;63132;52.268;5.192;2023-07-31T03:06:30;40.65;;;9.90;;
74626;SDS011;63132;52.268;5.192;2023-07-31T03:08:56;51.65;;;10.05;;
74626;SDS011;63132;52.268;5.192;2023-07-31T03:11:24;41.92;;;9.85;;
74626;SDS011;63132;52.268;5.192;2023-07-31T03:13:49;48.13;;;10.43;;
74626;SDS011;63132;52.268;5.192;2023-07-31T03:16:15;54.85;;;10.80;;
74626;SDS011;63132;52.268;5.192;2023-07-31T03:18:40;44.22;;;9.57;;
74626;SDS011;63132;52.268;5.192;2023-07-31T03:21:06;47.28;;;11.73;;
74626;SDS011;63132;52.268;5.192;2023-07-31T03:23:31;50.60;;;11.35;;
74626;SDS011;63132;52.268;5.192;2023-07-31T03:26:00;61.53;;;11.73;;
74626;SDS011;63132;52.268;5.192;2023-07-31T03:28:28;47.10;;;10.48;;
74626;SDS011;63132;52.268;5.192;2023-07-31T03:30:53;54.00;;;11.77;;
74626;SDS011;63132;52.268;5.192;2023-07-31T03:33:19;48.10;;;12.60;;
74626;SDS011;63132;52.268;5.192;2023-07-31T03:35:45;54.53;;;11.13;;
74626;SDS011;63132;52.268;5.192;2023-07-31T03:38:10;55.10;;;12.80;;
74626;SDS011;63132;52.268;5.192;2023-07-31T03:40:36;49.83;;;11.82;;
74626;SDS011;63132;52.268;5.192;2023-07-31T03:43:01;50.13;;;11.52;;
74626;SDS011;63132;52.268;5.192;2023-07-31T03:45:27;49.42;;;11.10;;
74626;SDS011;63132;52.268;5.192;2023-07-31T03:47:52;52.42;;;10.88;;
74626;SDS011;63132;52.268;5.192;2023-07-31T03:50:19;46.92;;;11.50;;
74626;SDS011;63132;52.268;5.192;2023-07-31T03:52:45;45.50;;;11.18;;
74626;SDS011;63132;52.268;5.192;2023-07-31T03:55:10;43.63;;;12.18;;
74626;SDS011;63132;52.268;5.192;2023-07-31T03:57:36;42.88;;;9.90;;
74626;SDS011;63132;52.268;5.192;2023-07-31T04:00:01;42.13;;;10.40;;
74626;SDS011;63132;52.268;5.192;2023-07-31T04:02:26;45.45;;;11.38;;
74626;SDS011;63132;52.268;5.192;2023-07-31T04:04:52;42.60;;;10.65;;
74626;SDS011;63132;52.268;5.192;2023-07-31T04:07:17;43.03;;;11.30;;
74626;SDS011;63132;52.268;5.192;2023-07-31T04:09:42;40.28;;;9.77;;
74626;SDS011;63132;52.268;5.192;2023-07-31T04:12:08;41.92;;;10.48;;
74626;SDS011;63132;52.268;5.192;2023-07-31T04:14:33;35.35;;;9.73;;
74626;SDS011;63132;52.268;5.192;2023-07-31T04:16:58;40.83;;;10.93;;
74626;SDS011;63132;52.268;5.192;2023-07-31T04:19:24;41.42;;;9.52;;
74626;SDS011;63132;52.268;5.192;2023-07-31T04:21:49;44.17;;;9.70;;
74626;SDS011;63132;52.268;5.192;2023-07-31T04:24:15;37.25;;;10.57;;
74626;SDS011;63132;52.268;5.192;2023-07-31T04:26:41;43.97;;;10.63;;
74626;SDS011;63132;52.268;5.192;2023-07-31T04:29:06;38.97;;;10.05;;
74626;SDS011;63132;52.268;5.192;2023-07-31T04:31:33;41.72;;;9.68;;
74626;SDS011;63132;52.268;5.192;2023-07-31T04:33:58;29.00;;;9.40;;
74626;SDS011;63132;52.268;5.192;2023-07-31T04:36:24;39.30;;;10.20;;
74626;SDS011;63132;52.268;5.192;2023-07-31T04:38:49;38.70;;;9.45;;
74626;SDS011;63132;52.268;5.192;2023-07-31T04:41:14;36.42;;;9.65;;
74626;SDS011;63132;52.268;5.192;2023-07-31T04:43:41;34.30;;;9.43;;
74626;SDS011;63132;52.268;5.192;2023-07-31T04:46:06;46.38;;;9.77;;
74626;SDS011;63132;52.268;5.192;2023-07-31T04:48:31;37.53;;;9.90;;
74626;SDS011;63132;52.268;5.192;2023-07-31T04:50:57;36.63;;;10.50;;
74626;SDS011;63132;52.268;5.192;2023-07-31T04:53:22;32.50;;;9.50;;
74626;SDS011;63132;52.268;5.192;2023-07-31T04:55:47;38.17;;;9.95;;
74626;SDS011;63132;52.268;5.192;2023-07-31T04:58:13;38.65;;;10.43;;
74626;SDS011;63132;52.268;5.192;2023-07-31T05:00:38;26.92;;;9.45;;
74626;SDS011;63132;52.268;5.192;2023-07-31T05:03:03;30.60;;;9.02;;
74626;SDS011;63132;52.268;5.192;2023-07-31T05:05:29;23.80;;;8.93;;
74626;SDS011;63132;52.268;5.192;2023-07-31T05:07:55;33.13;;;9.00;;
74626;SDS011;63132;52.268;5.192;2023-07-31T05:10:20;25.92;;;7.30;;
74626;SDS011;63132;52.268;5.192;2023-07-31T05:12:46;23.73;;;8.35;;
74626;SDS011;63132;52.268;5.192;2023-07-31T05:15:11;20.38;;;7.05;;
74626;SDS011;63132;52.268;5.192;2023-07-31T05:17:36;16.23;;;6.70;;
74626;SDS011;63132;52.268;5.192;2023-07-31T05:20:02;16.88;;;7.05;;
74626;SDS011;63132;52.268;5.192;2023-07-31T05:22:27;19.27;;;6.70;;
74626;SDS011;63132;52.268;5.192;2023-07-31T05:24:53;20.98;;;6.72;;
74626;SDS011;63132;52.268;5.192;2023-07-31T05:27:19;18.10;;;6.13;;
74626;SDS011;63132;52.268;5.192;2023-07-31T05:29:44;13.25;;;5.93;;
74626;SDS011;63132;52.268;5.192;2023-07-31T05:32:10;17.88;;;6.72;;
74626;SDS011;63132;52.268;5.192;2023-07-31T05:34:36;15.20;;;5.82;;
74626;SDS011;63132;52.268;5.192;2023-07-31T05:37:02;14.20;;;5.63;;
74626;SDS011;63132;52.268;5.192;2023-07-31T05:39:27;12.60;;;5.50;;
74626;SDS011;63132;52.268;5.192;2023-07-31T05:41:53;11.93;;;5.25;;
74626;SDS011;63132;52.268;5.192;2023-07-31T05:44:18;11.40;;;4.95;;
74626;SDS011;63132;52.268;5.192;2023-07-31T05:46:43;14.35;;;5.65;;
74626;SDS011;63132;52.268;5.192;2023-07-31T05:49:08;12.80;;;5.03;;
74626;SDS011;63132;52.268;5.192;2023-07-31T05:51:34;10.90;;;4.68;;
74626;SDS011;63132;52.268;5.192;2023-07-31T05:54:00;14.23;;;4.88;;
74626;SDS011;63132;52.268;5.192;2023-07-31T05:56:25;13.32;;;5.03;;
74626;SDS011;63132;52.268;5.192;2023-07-31T05:58:52;8.63;;;4.63;;
74626;SDS011;63132;52.268;5.192;2023-07-31T06:01:22;13.55;;;5.10;;
74626;SDS011;63132;52.268;5.192;2023-07-31T06:03:47;12.02;;;4.82;;
74626;SDS011;63132;52.268;5.192;2023-07-31T06:06:13;10.38;;;4.43;;
74626;SDS011;63132;52.268;5.192;2023-07-31T06:08:39;12.25;;;4.53;;
74626;SDS011;63132;52.268;5.192;2023-07-31T06:11:05;12.80;;;4.68;;
74626;SDS011;63132;52.268;5.192;2023-07-31T06:13:38;11.07;;;4.82;;
74626;SDS011;63132;52.268;5.192;2023-07-31T06:16:04;11.98;;;4.72;;
74626;SDS011;63132;52.268;5.192;2023-07-31T06:18:31;11.40;;;4.95;;
74626;SDS011;63132;52.268;5.192;2023-07-31T06:20:57;10.18;;;4.47;;
74626;SDS011;63132;52.268;5.192;2023-07-31T06:23:23;12.18;;;3.97;;
74626;SDS011;63132;52.268;5.192;2023-07-31T06:25:48;18.58;;;5.13;;
74626;SDS011;63132;52.268;5.192;2023-07-31T06:28:13;11.60;;;4.65;;
74626;SDS011;63132;52.268;5.192;2023-07-31T06:30:39;10.73;;;3.83;;
74626;SDS011;63132;52.268;5.192;2023-07-31T06:33:04;11.18;;;3.83;;
74626;SDS011;63132;52.268;5.192;2023-07-31T06:35:30;12.57;;;4.85;;
74626;SDS011;63132;52.268;5.192;2023-07-31T06:37:55;9.90;;;3.63;;
74626;SDS011;63132;52.268;5.192;2023-07-31T06:40:20;10.20;;;3.83;;
74626;SDS011;63132;52.268;5.192;2023-07-31T06:42:47;10.45;;;3.83;;
74626;SDS011;63132;52.268;5.192;2023-07-31T06:45:24;7.53;;;3.88;;
74626;SDS011;63132;52.268;5.192;2023-07-31T06:48:02;6.47;;;3.58;;
74626;SDS011;63132;52.268;5.192;2023-07-31T06:50:31;11.93;;;4.40;;
74626;SDS011;63132;52.268;5.192;2023-07-31T06:52:58;7.68;;;3.75;;
74626;SDS011;63132;52.268;5.192;2023-07-31T06:55:27;6.38;;;3.28;;
74626;SDS011;63132;52.268;5.192;2023-07-31T06:57:53;8.73;;;3.47;;
74626;SDS011;63132;52.268;5.192;2023-07-31T07:00:28;9.57;;;3.17;;
74626;SDS011;63132;52.268;5.192;2023-07-31T07:02:54;7.13;;;2.92;;
74626;SDS011;63132;52.268;5.192;2023-07-31T07:05:25;4.28;;;2.28;;
74626;SDS011;63132;52.268;5.192;2023-07-31T07:07:53;4.88;;;2.60;;
74626;SDS011;63132;52.268;5.192;2023-07-31T07:10:19;5.78;;;2.70;;
74626;SDS011;63132;52.268;5.192;2023-07-31T07:12:45;4.85;;;2.72;;
74626;SDS011;63132;52.268;5.192;2023-07-31T07:15:11;10.77;;;2.85;;
74626;SDS011;63132;52.268;5.192;2023-07-31T07:17:36;5.00;;;2.38;;
74626;SDS011;63132;52.268;5.192;2023-07-31T07:20:23;9.93;;;3.35;;
74626;SDS011;63132;52.268;5.192;2023-07-31T07:22:48;8.77;;;2.30;;
74626;SDS011;63132;52.268;5.192;2023-07-31T07:25:19;5.38;;;2.38;;
74626;SDS011;63132;52.268;5.192;2023-07-31T07:27:51;5.68;;;2.33;;
74626;SDS011;63132;52.268;5.192;2023-07-31T07:30:20;8.48;;;2.53;;
74626;SDS011;63132;52.268;5.192;2023-07-31T07:32:48;4.97;;;2.40;;
74626;SDS011;63132;52.268;5.192;2023-07-31T07:35:14;5.68;;;2.95;;
74626;SDS011;63132;52.268;5.192;2023-07-31T07:37:42;3.78;;;2.22;;
74626;SDS011;63132;52.268;5.192;2023-07-31T07:40:20;7.57;;;2.00;;
74626;SDS011;63132;52.268;5.192;2023-07-31T07:42:46;3.70;;;2.05;;
74626;SDS011;63132;52.268;5.192;2023-07-31T07:45:12;5.07;;;2.20;;
74626;SDS011;63132;52.268;5.192;2023-07-31T07:47:38;3.30;;;1.90;;
74626;SDS011;63132;52.268;5.192;2023-07-31T07:50:06;3.88;;;1.83;;
74626;SDS011;63132;52.268;5.192;2023-07-31T07:52:32;4.53;;;1.55;;
74626;SDS011;63132;52.268;5.192;2023-07-31T07:55:01;3.35;;;1.60;;
74626;SDS011;63132;52.268;5.192;2023-07-31T07:57:32;2.83;;;1.50;;
74626;SDS011;63132;52.268;5.192;2023-07-31T08:00:15;2.50;;;1.50;;
74626;SDS011;63132;52.268;5.192;2023-07-31T08:03:08;2.88;;;1.55;;
74626;SDS011;63132;52.268;5.192;2023-07-31T08:05:59;3.35;;;1.45;;
74626;SDS011;63132;52.268;5.192;2023-07-31T08:08:39;2.78;;;1.30;;
74626;SDS011;63132;52.268;5.192;2023-07-31T08:11:16;2.35;;;1.67;;
74626;SDS011;63132;52.268;5.192;2023-07-31T08:13:45;3.55;;;1.73;;
74626;SDS011;63132;52.268;5.192;2023-07-31T08:16:11;2.35;;;1.55;;
74626;SDS011;63132;52.268;5.192;2023-07-31T08:18:59;2.33;;;1.20;;
74626;SDS011;63132;52.268;5.192;2023-07-31T08:21:24;2.10;;;1.20;;
74626;SDS011;63132;52.268;5.192;2023-07-31T08:23:50;2.85;;;1.48;;
74626;SDS011;63132;52.268;5.192;2023-07-31T08:26:15;2.00;;;1.25;;
74626;SDS011;63132;52.268;5.192;2023-07-31T08:28:42;4.28;;;1.60;;
74626;SDS011;63132;52.268;5.192;2023-07-31T08:31:07;2.47;;;1.20;;
74626;SDS011;63132;52.268;5.192;2023-07-31T08:33:32;2.17;;;1.27;;
74626;SDS011;63132;52.268;5.192;2023-07-31T08:35:58;1.58;;;1.20;;
74626;SDS011;63132;52.268;5.192;2023-07-31T08:38:24;4.13;;;1.50;;
74626;SDS011;63132;52.268;5.192;2023-07-31T08:40:51;1.17;;;0.95;;
74626;SDS011;63132;52.268;5.192;2023-07-31T08:43:16;2.80;;;1.30;;
74626;SDS011;63132;52.268;5.192;2023-07-31T08:45:43;2.47;;;1.20;;
74626;SDS011;63132;52.268;5.192;2023-07-31T08:48:08;2.17;;;1.23;;
74626;SDS011;63132;52.268;5.192;2023-07-31T08:50:36;3.05;;;1.00;;
74626;SDS011;63132;52.268;5.192;2023-07-31T08:53:02;1.60;;;1.27;;
74626;SDS011;63132;52.268;5.192;2023-07-31T08:55:28;2.50;;;1.20;;
74626;SDS011;63132;52.268;5.192;2023-07-31T08:57:54;1.70;;;1.15;;
74626;SDS011;63132;52.268;5.192;2023-07-31T09:00:20;1.75;;;1.20;;
74626;SDS011;63132;52.268;5.192;2023-07-31T09:02:53;2.25;;;1.10;;
74626;SDS011;63132;52.268;5.192;2023-07-31T09:05:33;1.20;;;0.90;;
74626;SDS011;63132;52.268;5.192;2023-07-31T09:08:01;2.90;;;1.15;;
74626;SDS011;63132;52.268;5.192;2023-07-31T09:10:29;3.60;;;0.88;;
74626;SDS011;63132;52.268;5.192;2023-07-31T09:12:54;1.38;;;0.80;;
74626;SDS011;63132;52.268;5.192;2023-07-31T09:15:21;1.35;;;0.80;;
74626;SDS011;63132;52.268;5.192;2023-07-31T09:17:48;1.27;;;0.65;;
74626;SDS011;63132;52.268;5.192;2023-07-31T09:20:25;1.05;;;0.80;;
74626;SDS011;63132;52.268;5.192;2023-07-31T09:22:50;0.93;;;0.77;;
74626;SDS011;63132;52.268;5.192;2023-07-31T09:25:17;1.10;;;0.80;;
74626;SDS011;63132;52.268;5.192;2023-07-31T09:27:48;1.58;;;1.17;;
74626;SDS011;63132;52.268;5.192;2023-07-31T09:30:19;0.98;;;0.80;;
74626;SDS011;63132;52.268;5.192;2023-07-31T09:32:45;2.78;;;0.82;;
74626;SDS011;63132;52.268;5.192;2023-07-31T09:35:13;1.52;;;0.90;;
74626;SDS011;63132;52.268;5.192;2023-07-31T09:37:59;1.38;;;0.90;;
74626;SDS011;63132;52.268;5.192;2023-07-31T09:40:33;2.15;;;0.60;;
74626;SDS011;63132;52.268;5.192;2023-07-31T09:43:00;1.05;;;0.73;;
74626;SDS011;63132;52.268;5.192;2023-07-31T09:45:27;1.88;;;1.05;;
74626;SDS011;63132;52.268;5.192;2023-07-31T09:47:53;1.10;;;0.98;;
74626;SDS011;63132;52.268;5.192;2023-07-31T09:50:23;1.95;;;0.90;;
74626;SDS011;63132;52.268;5.192;2023-07-31T09:52:50;2.88;;;1.00;;
74626;SDS011;63132;52.268;5.192;2023-07-31T09:55:17;2.78;;;0.93;;
74626;SDS011;63132;52.268;5.192;2023-07-31T09:57:44;2.25;;;1.10;;
74626;SDS011;63132;52.268;5.192;2023-07-31T10:00:12;3.67;;;1.25;;
74626;SDS011;63132;52.268;5.192;2023-07-31T10:02:41;5.45;;;1.38;;
74626;SDS011;63132;52.268;5.192;2023-07-31T10:05:12;5.88;;;1.58;;
74626;SDS011;63132;52.268;5.192;2023-07-31T10:07:40;6.32;;;1.95;;
74626;SDS011;63132;52.268;5.192;2023-07-31T10:10:13;3.28;;;1.75;;
74626;SDS011;63132;52.268;5.192;2023-07-31T10:12:40;5.70;;;2.20;;
74626;SDS011;63132;52.268;5.192;2023-07-31T10:15:13;9.70;;;2.40;;
74626;SDS011;63132;52.268;5.192;2023-07-31T10:17:40;6.78;;;2.17;;
74626;SDS011;63132;52.268;5.192;2023-07-31T10:20:14;7.00;;;2.25;;
74626;SDS011;63132;52.268;5.192;2023-07-31T10:22:44;12.88;;;3.40;;
74626;SDS011;63132;52.268;5.192;2023-07-31T10:25:12;6.07;;;2.03;;
74626;SDS011;63132;52.268;5.192;2023-07-31T10:27:41;6.18;;;2.15;;
74626;SDS011;63132;52.268;5.192;2023-07-31T10:30:10;8.10;;;2.38;;
74626;SDS011;63132;52.268;5.192;2023-07-31T10:32:40;6.93;;;2.08;;
74626;SDS011;63132;52.268;5.192;2023-07-31T10:35:08;7.93;;;2.00;;
74626;SDS011;63132;52.268;5.192;2023-07-31T10:37:41;5.15;;;1.83;;
74626;SDS011;63132;52.268;5.192;2023-07-31T10:40:11;3.72;;;1.70;;
74626;SDS011;63132;52.268;5.192;2023-07-31T10:42:45;2.90;;;1.55;;
74626;SDS011;63132;52.268;5.192;2023-07-31T10:48:17;6.45;;;2.28;;
74626;SDS011;63132;52.268;5.192;2023-07-31T10:50:49;9.55;;;2.50;;
74626;SDS011;63132;52.268;5.192;2023-07-31T10:53:26;8.30;;;2.63;;
74626;SDS011;63132;52.268;5.192;2023-07-31T10:56:02;7.65;;;2.42;;
74626;SDS011;63132;52.268;5.192;2023-07-31T10:58:29;6.93;;;1.77;;
74626;SDS011;63132;52.268;5.192;2023-07-31T11:00:57;3.78;;;1.70;;
74626;SDS011;63132;52.268;5.192;2023-07-31T11:03:27;5.85;;;2.03;;
74626;SDS011;63132;52.268;5.192;2023-07-31T11:06:09;5.53;;;2.43;;
74626;SDS011;63132;52.268;5.192;2023-07-31T11:08:35;6.82;;;1.80;;
74626;SDS011;63132;52.268;5.192;2023-07-31T11:11:10;3.28;;;1.80;;
74626;SDS011;63132;52.268;5.192;2023-07-31T11:16:20;6.22;;;2.00;;
74626;SDS011;63132;52.268;5.192;2023-07-31T11:18:53;9.10;;;2.10;;
74626;SDS011;63132;52.268;5.192;2023-07-31T11:21:21;6.13;;;2.42;;
74626;SDS011;63132;52.268;5.192;2023-07-31T11:23:48;9.73;;;2.78;;
74626;SDS011;63132;52.268;5.192;2023-07-31T11:26:15;9.10;;;3.78;;
74626;SDS011;63132;52.268;5.192;2023-07-31T11:28:42;8.32;;;2.97;;
74626;SDS011;63132;52.268;5.192;2023-07-31T11:31:11;11.85;;;2.45;;
74626;SDS011;63132;52.268;5.192;2023-07-31T11:33:36;9.63;;;2.85;;
74626;SDS011;63132;52.268;5.192;2023-07-31T11:36:02;12.15;;;3.13;;
74626;SDS011;63132;52.268;5.192;2023-07-31T11:38:29;8.88;;;3.10;;
74626;SDS011;63132;52.268;5.192;2023-07-31T11:41:00;7.28;;;2.60;;
74626;SDS011;63132;52.268;5.192;2023-07-31T11:43:27;8.35;;;2.67;;
74626;SDS011;63132;52.268;5.192;2023-07-31T11:45:58;10.27;;;2.63;;
74626;SDS011;63132;52.268;5.192;2023-07-31T11:48:28;8.30;;;2.78;;
74626;SDS011;63132;52.268;5.192;2023-07-31T11:50:59;9.02;;;2.83;;
74626;SDS011;63132;52.268;5.192;2023-07-31T11:53:37;7.38;;;2.33;;
74626;SDS011;63132;52.268;5.192;2023-07-31T11:56:07;9.23;;;3.40;;
74626;SDS011;63132;52.268;5.192;2023-07-31T11:58:36;11.27;;;3.30;;
74626;SDS011;63132;52.268;5.192;2023-07-31T12:01:03;7.47;;;2.70;;
74626;SDS011;63132;52.268;5.192;2023-07-31T12:03:29;11.35;;;3.05;;
74626;SDS011;63132;52.268;5.192;2023-07-31T12:05:57;9.00;;;3.15;;
74626;SDS011;63132;52.268;5.192;2023-07-31T12:08:23;8.23;;;2.60;;
74626;SDS011;63132;52.268;5.192;2023-07-31T12:10:50;12.30;;;3.15;;
74626;SDS011;63132;52.268;5.192;2023-07-31T12:13:20;9.77;;;3.00;;
74626;SDS011;63132;52.268;5.192;2023-07-31T12:15:49;9.40;;;2.45;;
74626;SDS011;63132;52.268;5.192;2023-07-31T12:18:19;8.23;;;3.03;;
74626;SDS011;63132;52.268;5.192;2023-07-31T12:20:46;11.93;;;2.60;;
74626;SDS011;63132;52.268;5.192;2023-07-31T12:23:13;8.10;;;2.97;;
74626;SDS011;63132;52.268;5.192;2023-07-31T12:25:40;13.85;;;2.95;;
74626;SDS011;63132;52.268;5.192;2023-07-31T12:28:06;9.05;;;2.42;;
74626;SDS011;63132;52.268;5.192;2023-07-31T12:30:36;8.00;;;2.10;;
74626;SDS011;63132;52.268;5.192;2023-07-31T12:33:06;14.30;;;2.70;;
74626;SDS011;63132;52.268;5.192;2023-07-31T12:35:37;7.47;;;2.05;;
74626;SDS011;63132;52.268;5.192;2023-07-31T12:38:06;10.18;;;2.47;;
74626;SDS011;63132;52.268;5.192;2023-07-31T12:40:32;6.18;;;2.00;;
74626;SDS011;63132;52.268;5.192;2023-07-31T12:42:57;6.05;;;2.30;;
74626;SDS011;63132;52.268;5.192;2023-07-31T12:45:25;9.82;;;2.00;;
74626;SDS011;63132;52.268;5.192;2023-07-31T12:47:51;6.45;;;2.55;;
74626;SDS011;63132;52.268;5.192;2023-07-31T12:50:16;10.95;;;2.13;;
74626;SDS011;63132;52.268;5.192;2023-07-31T12:52:41;7.82;;;2.60;;
74626;SDS011;63132;52.268;5.192;2023-07-31T12:55:07;8.05;;;2.40;;
74626;SDS011;63132;52.268;5.192;2023-07-31T12:57:32;7.95;;;2.00;;
74626;SDS011;63132;52.268;5.192;2023-07-31T12:59:57;7.47;;;2.45;;
74626;SDS011;63132;52.268;5.192;2023-07-31T13:02:23;7.15;;;2.10;;
74626;SDS011;63132;52.268;5.192;2023-07-31T13:04:49;9.00;;;1.95;;
74626;SDS011;63132;52.268;5.192;2023-07-31T13:07:15;6.00;;;2.10;;
74626;SDS011;63132;52.268;5.192;2023-07-31T13:09:41;6.15;;;2.05;;
74626;SDS011;63132;52.268;5.192;2023-07-31T13:12:06;9.95;;;2.50;;
74626;SDS011;63132;52.268;5.192;2023-07-31T13:14:32;7.88;;;2.58;;
74626;SDS011;63132;52.268;5.192;2023-07-31T13:16:57;7.28;;;1.73;;
74626;SDS011;63132;52.268;5.192;2023-07-31T13:19:22;11.10;;;2.25;;
74626;SDS011;63132;52.268;5.192;2023-07-31T13:21:48;12.10;;;2.38;;
74626;SDS011;63132;52.268;5.192;2023-07-31T13:24:13;12.25;;;2.10;;
74626;SDS011;63132;52.268;5.192;2023-07-31T13:26:39;7.57;;;2.25;;
74626;SDS011;63132;52.268;5.192;2023-07-31T13:29:04;5.97;;;2.17;;
74626;SDS011;63132;52.268;5.192;2023-07-31T13:31:29;6.38;;;2.08;;
74626;SDS011;63132;52.268;5.192;2023-07-31T13:33:55;8.27;;;2.08;;
74626;SDS011;63132;52.268;5.192;2023-07-31T13:36:20;7.45;;;1.80;;
74626;SDS011;63132;52.268;5.192;2023-07-31T13:38:45;6.63;;;2.00;;
74626;SDS011;63132;52.268;5.192;2023-07-31T13:41:11;7.85;;;2.47;;
74626;SDS011;63132;52.268;5.192;2023-07-31T13:43:36;9.48;;;2.80;;
74626;SDS011;63132;52.268;5.192;2023-07-31T13:46:01;5.60;;;1.92;;
74626;SDS011;63132;52.268;5.192;2023-07-31T13:48:31;5.70;;;2.13;;
74626;SDS011;63132;52.268;5.192;2023-07-31T13:51:00;9.25;;;2.03;;
74626;SDS011;63132;52.268;5.192;2023-07-31T13:53:25;7.38;;;2.35;;
74626;SDS011;63132;52.268;5.192;2023-07-31T13:55:51;7.05;;;2.20;;
74626;SDS011;63132;52.268;5.192;2023-07-31T13:58:17;3.92;;;1.70;;
74626;SDS011;63132;52.268;5.192;2023-07-31T14:00:42;2.97;;;1.50;;
74626;SDS011;63132;52.268;5.192;2023-07-31T14:03:08;5.28;;;1.73;;
74626;SDS011;63132;52.268;5.192;2023-07-31T14:05:33;4.20;;;1.52;;
74626;SDS011;63132;52.268;5.192;2023-07-31T14:07:58;2.95;;;1.70;;
74626;SDS011;63132;52.268;5.192;2023-07-31T14:10:24;3.80;;;2.10;;
74626;SDS011;63132;52.268;5.192;2023-07-31T14:12:50;6.22;;;2.28;;
74626;SDS011;63132;52.268;5.192;2023-07-31T14:15:16;6.18;;;2.10;;
74626;SDS011;63132;52.268;5.192;2023-07-31T14:17:41;6.57;;;1.80;;
74626;SDS011;63132;52.268;5.192;2023-07-31T14:20:07;6.53;;;1.92;;
74626;SDS011;63132;52.268;5.192;2023-07-31T14:22:32;3.65;;;1.67;;
74626;SDS011;63132;52.268;5.192;2023-07-31T14:24:59;2.53;;;1.80;;
74626;SDS011;63132;52.268;5.192;2023-07-31T14:27:25;2.17;;;1.58;;
74626;SDS011;63132;52.268;5.192;2023-07-31T14:29:50;3.58;;;1.75;;
74626;SDS011;63132;52.268;5.192;2023-07-31T14:32:15;3.05;;;1.80;;
74626;SDS011;63132;52.268;5.192;2023-07-31T14:34:41;3.55;;;1.40;;
74626;SDS011;63132;52.268;5.192;2023-07-31T14:37:06;3.72;;;1.55;;
74626;SDS011;63132;52.268;5.192;2023-07-31T14:39:32;4.07;;;1.77;;
74626;SDS011;63132;52.268;5.192;2023-07-31T14:41:57;2.55;;;1.45;;
74626;SDS011;63132;52.268;5.192;2023-07-31T14:44:22;4.35;;;1.30;;
74626;SDS011;63132;52.268;5.192;2023-07-31T14:46:48;5.28;;;1.35;;
74626;SDS011;63132;52.268;5.192;2023-07-31T14:49:13;3.65;;;1.38;;
74626;SDS011;63132;52.268;5.192;2023-07-31T14:51:39;3.03;;;1.20;;
74626;SDS011;63132;52.268;5.192;2023-07-31T14:54:04;1.90;;;1.10;;